| time (UTC) | temp F | wind direction | speed knots | gust knots | rain 1hr in | rain 24hr in | rain mn in | humidity % | barometer mb |
| 20260906200025 | 93 | 121 | 7.0 | 18.2 | 0.00 | 0.03 | 0.03 | 38 | 1015.8 |
| 20260906194521 | 92 | 139 | 7.0 | 13.9 | 0.00 | 0.03 | 0.03 | 39 | 1016.1 |
| 20260906193024 | 91 | 121 | 7.0 | 17.4 | 0.00 | 0.03 | 0.03 | 42 | 1016.5 |
| 20260906191526 | 90 | 141 | 4.3 | 16.5 | 0.00 | 0.03 | 0.03 | 41 | 1016.6 |
| 20260906190011 | 91 | 144 | 9.6 | 14.8 | 0.00 | 0.03 | 0.03 | 42 | 1016.8 |
| 20260906184527 | 88 | 222 | 7.0 | 13.0 | 0.00 | 0.03 | 0.03 | 46 | 1017.1 |
| 20260906183005 | 87 | 90 | 7.0 | 12.2 | 0.00 | 0.03 | 0.03 | 46 | 1017.3 |
| 20260906181508 | 87 | 65 | 6.1 | 13.0 | 0.00 | 0.03 | 0.03 | 49 | 1017.6 |
| 20260906180013 | 84 | 88 | 4.3 | 11.3 | 0.00 | 0.03 | 0.03 | 54 | 1017.8 |
| 20260906174528 | 83 | 87 | 7.0 | 13.9 | 0.00 | 0.03 | 0.03 | 54 | 1018.1 |
| 20260906173004 | 82 | 103 | 7.8 | 16.5 | 0.00 | 0.03 | 0.03 | 58 | 1018.4 |
| 20260906171508 | 81 | 95 | 7.0 | 15.6 | 0.00 | 0.03 | 0.03 | 61 | 1018.9 |
| 20260906170016 | 80 | 83 | 7.8 | 16.5 | 0.00 | 0.03 | 0.03 | 66 | 1019.2 |
| 20260906164535 | 78 | 58 | 6.1 | 14.8 | 0.00 | 0.03 | 0.03 | 68 | 1019.4 |
| 20260906163008 | 78 | 47 | 7.0 | 13.9 | 0.01 | 0.03 | 0.03 | 69 | 1019.3 |
| 20260906161516 | 78 | 86 | 6.1 | 14.8 | 0.03 | 0.03 | 0.03 | 68 | 1019.5 |
| 20260906160024 | 77 | 74 | 7.8 | 14.8 | 0.03 | 0.03 | 0.03 | 70 | 1019.5 |
| 20260906154530 | 76 | 70 | 7.0 | 13.0 | 0.03 | 0.03 | 0.03 | 71 | 1019.5 |
| 20260906153022 | 76 | 71 | 9.6 | 17.4 | 0.02 | 0.02 | 0.02 | 69 | 1019.3 |
| 20260906151520 | 76 | 44 | 7.0 | 13.9 | 0.00 | 0.00 | 0.00 | 69 | 1019.1 |
| 20260906150026 | 79 | 47 | 5.2 | 11.3 | 0.00 | 0.00 | 0.00 | 59 | 1019.0 |
| 20260906144532 | 80 | 69 | 7.8 | 14.8 | 0.00 | 0.00 | 0.00 | 57 | 1018.8 |
| 20260906143014 | 79 | 142 | 0.9 | 7.8 | 0.00 | 0.00 | 0.00 | 59 | 1018.3 |
| 20260906141525 | 78 | 162 | 3.5 | 8.7 | 0.00 | 0.00 | 0.00 | 61 | 1018.2 |
| 20260906140029 | 76 | 117 | 1.7 | 5.2 | 0.00 | 0.00 | 0.00 | 66 | 1017.9 |
| 20260906134529 | 74 | 148 | 0.9 | 7.0 | 0.00 | 0.00 | 0.00 | 71 | 1017.8 |
| 20260906133012 | 73 | 136 | 2.6 | 6.1 | 0.00 | 0.00 | 0.00 | 72 | 1017.4 |
| 20260906131523 | 73 | 111 | 1.7 | 7.0 | 0.00 | 0.00 | 0.00 | 73 | 1017.4 |
| 20260906130031 | 72 | 145 | 1.7 | 6.1 | 0.00 | 0.00 | 0.00 | 75 | 1017.2 |
| 20260906124537 | 71 | 122 | 0.9 | 4.3 | 0.00 | 0.00 | 0.00 | 75 | 1016.9 |
| 20260906123024 | 70 | 129 | 0.9 | 2.6 | 0.00 | 0.00 | 0.00 | 76 | 1016.7 |
| 20260906121531 | 70 | 186 | 0.0 | 2.6 | 0.00 | 0.00 | 0.00 | 76 | 1016.5 |
| 20260906120029 | 70 | 186 | 0.0 | 2.6 | 0.00 | 0.00 | 0.00 | 76 | 1016.5 |
| 20260906114532 | 71 | 186 | 0.0 | 2.6 | 0.00 | 0.00 | 0.00 | 76 | 1016.4 |
| 20260906113023 | 71 | 186 | 1.7 | 4.3 | 0.00 | 0.00 | 0.00 | 76 | 1016.3 |
| 20260906111506 | 71 | 141 | 1.7 | 4.3 | 0.00 | 0.00 | 0.00 | 75 | 1016.1 |
| 20260906110008 | 72 | 141 | 0.0 | 2.6 | 0.00 | 0.00 | 0.00 | 74 | 1016.1 |
| 20260906104520 | 72 | 141 | 1.7 | 3.5 | 0.00 | 0.00 | 0.00 | 73 | 1016.0 |
| 20260906103040 | 72 | 141 | 0.9 | 6.1 | 0.00 | 0.00 | 0.00 | 72 | 1015.9 |
| 20260906101504 | 73 | 180 | 0.9 | 3.5 | 0.00 | 0.00 | 0.00 | 72 | 1015.9 |
| 20260906100023 | 73 | 129 | 0.9 | 6.1 | 0.00 | 0.00 | 0.00 | 73 | 1015.8 |
| 20260906094519 | 73 | 208 | 2.6 | 4.3 | 0.00 | 0.00 | 0.00 | 72 | 1015.9 |
| 20260906093004 | 74 | 208 | 2.6 | 4.3 | 0.00 | 0.00 | 0.00 | 71 | 1016.0 |
| 20260906091506 | 75 | 208 | 1.7 | 4.3 | 0.00 | 0.00 | 0.00 | 69 | 1016.0 |
| 20260906090012 | 75 | 208 | 1.7 | 4.3 | 0.00 | 0.00 | 0.00 | 67 | 1016.0 |
| 20260906084523 | 76 | 208 | 2.6 | 5.2 | 0.00 | 0.00 | 0.00 | 66 | 1016.0 |
| 20260906083004 | 76 | 223 | 3.5 | 4.3 | 0.00 | 0.00 | 0.00 | 65 | 1016.0 |
| 20260906081510 | 76 | 224 | 2.6 | 4.3 | 0.00 | 0.00 | 0.00 | 65 | 1016.2 |
| 20260906080016 | 76 | 205 | 2.6 | 6.1 | 0.00 | 0.00 | 0.00 | 65 | 1016.3 |
| 20260906074526 | 76 | 227 | 2.6 | 5.2 | 0.00 | 0.00 | 0.00 | 65 | 1016.3 |
| 20260906073005 | 76 | 189 | 2.6 | 4.3 | 0.00 | 0.00 | 0.00 | 65 | 1016.2 |
| 20260906071513 | 76 | 217 | 3.5 | 5.2 | 0.00 | 0.00 | 0.00 | 65 | 1016.2 |
| 20260906070018 | 76 | 209 | 2.6 | 5.2 | 0.00 | 0.00 | 0.00 | 64 | 1016.2 |
| 20260906064534 | 76 | 182 | 1.7 | 5.2 | 0.00 | 0.00 | 0.00 | 64 | 1016.2 |
| 20260906063008 | 77 | 175 | 2.6 | 5.2 | 0.00 | 0.00 | 0.00 | 63 | 1016.3 |
| 20260906061522 | 77 | 158 | 1.7 | 6.1 | 0.00 | 0.00 | 0.00 | 62 | 1016.3 |
| 20260906060023 | 77 | 163 | 1.7 | 6.1 | 0.00 | 0.00 | 0.00 | 61 | 1016.4 |
| 20260906054536 | 78 | 157 | 1.7 | 7.0 | 0.00 | 0.00 | 0.00 | 60 | 1016.1 |
| 20260906053009 | 78 | 151 | 4.3 | 9.6 | 0.00 | 0.00 | 0.00 | 59 | 1015.9 |
| 20260906051518 | 78 | 151 | 3.5 | 9.6 | 0.00 | 0.00 | 0.00 | 58 | 1015.8 |
| 20260906050027 | 78 | 116 | 3.5 | 10.4 | 0.00 | 0.00 | 0.00 | 58 | 1015.6 |
| 20260906044532 | 78 | 117 | 4.3 | 9.6 | 0.00 | 0.00 | 0.00 | 58 | 1015.2 |
| 20260906043020 | 78 | 128 | 4.3 | 10.4 | 0.00 | 0.00 | 0.00 | 58 | 1015.4 |
| 20260906041519 | 78 | 142 | 3.5 | 7.0 | 0.00 | 0.00 | 0.00 | 59 | 1015.4 |
| 20260906040027 | 78 | 116 | 2.6 | 7.0 | 0.00 | 0.01 | 0.00 | 58 | 1015.4 |
| 20260906034534 | 79 | 123 | 2.6 | 8.7 | 0.00 | 0.02 | 0.00 | 58 | 1015.3 |
| 20260906033013 | 79 | 108 | 3.5 | 8.7 | 0.00 | 0.03 | 0.00 | 58 | 1015.3 |
| 20260906031524 | 79 | 171 | 2.6 | 7.0 | 0.00 | 0.03 | 0.00 | 56 | 1015.3 |
| 20260906030027 | 80 | 188 | 2.6 | 9.6 | 0.00 | 0.03 | 0.00 | 56 | 1015.2 |
| 20260906024509 | 80 | 135 | 3.5 | 11.3 | 0.00 | 0.03 | 0.00 | 56 | 1015.1 |
| 20260906023016 | 80 | 130 | 3.5 | 11.3 | 0.00 | 0.03 | 0.00 | 58 | 1014.8 |
| 20260906021506 | 80 | 154 | 5.2 | 13.9 | 0.00 | 0.03 | 0.00 | 59 | 1014.7 |
| 20260906020007 | 80 | 115 | 5.2 | 12.2 | 0.00 | 0.03 | 0.00 | 58 | 1014.7 |
| 20260906014515 | 81 | 121 | 4.3 | 12.2 | 0.00 | 0.03 | 0.00 | 56 | 1014.3 |
| 20260906013034 | 81 | 111 | 6.1 | 14.8 | 0.00 | 0.03 | 0.00 | 55 | 1014.1 |
| 20260906011504 | 82 | 138 | 5.2 | 13.0 | 0.00 | 0.03 | 0.00 | 56 | 1014.3 |
| 20260906010008 | 82 | 117 | 7.0 | 13.9 | 0.00 | 0.03 | 0.00 | 56 | 1014.3 |
| 20260906004517 | 84 | 128 | 6.1 | 13.0 | 0.00 | 0.03 | 0.00 | 53 | 1014.4 |
| 20260906003025 | 86 | 81 | 6.1 | 14.8 | 0.00 | 0.03 | 0.00 | 48 | 1014.5 |
| 20260906001506 | 88 | 107 | 4.3 | 15.6 | 0.00 | 0.03 | 0.00 | 45 | 1014.5 |
| 20260906000008 | 90 | 74 | 7.8 | 16.5 | 0.00 | 0.03 | 0.00 | 44 | 1014.3 |
| 20260905234515 | 96 | 103 | 2.6 | 7.8 | 0.00 | 0.03 | 0.00 | 34 | 1014.2 |
| 20260905233024 | 96 | 182 | 4.3 | 13.0 | 0.00 | 0.03 | 0.00 | 34 | 1014.1 |
| 20260905231506 | 96 | 176 | 5.2 | 13.9 | 0.00 | 0.03 | 0.00 | 34 | 1013.9 |
| 20260905230013 | 97 | 189 | 4.3 | 13.0 | 0.00 | 0.03 | 0.00 | 33 | 1013.7 |
| 20260905224528 | 98 | 177 | 4.3 | 14.8 | 0.00 | 0.03 | 0.00 | 32 | 1013.5 |
| 20260905223024 | 99 | 195 | 7.0 | 12.2 | 0.00 | 0.03 | 0.00 | 31 | 1013.4 |
| 20260905221504 | 98 | 219 | 8.7 | 15.6 | 0.00 | 0.03 | 0.00 | 32 | 1013.3 |
| 20260905220012 | 98 | 196 | 7.8 | 17.4 | 0.00 | 0.03 | 0.00 | 32 | 1013.3 |
| 20260905214523 | 98 | 194 | 7.8 | 16.5 | 0.00 | 0.03 | 0.00 | 31 | 1013.4 |
| 20260905213027 | 99 | 173 | 7.0 | 15.6 | 0.00 | 0.03 | 0.00 | 30 | 1013.5 |
| 20260905211507 | 99 | 180 | 9.6 | 13.0 | 0.00 | 0.03 | 0.00 | 29 | 1013.6 |
| 20260905210016 | 99 | 194 | 7.8 | 17.4 | 0.00 | 0.03 | 0.00 | 30 | 1013.8 |
| 20260905204503 | 99 | 199 | 8.7 | 13.9 | 0.00 | 0.03 | 0.00 | 31 | 1014.0 |
| 20260905203006 | 99 | 128 | 6.1 | 15.6 | 0.00 | 0.03 | 0.00 | 31 | 1014.3 |
| 20260905201517 | 97 | 180 | 6.1 | 13.0 | 0.00 | 0.03 | 0.00 | 33 | 1014.5 |